createdAt,value
2018-06-14T00:00:12.592Z,14.00
2018-06-14T00:02:41.131Z,14.00
2018-06-14T00:05:09.613Z,14.00
2018-06-14T00:07:39.061Z,14.00
2018-06-14T00:10:07.607Z,13.90
2018-06-14T00:12:36.130Z,13.90
2018-06-14T00:15:05.051Z,13.90
2018-06-14T00:17:33.556Z,13.90
2018-06-14T00:20:02.025Z,13.90
2018-06-14T00:22:30.520Z,13.90
2018-06-14T00:24:59.101Z,13.90
2018-06-14T00:27:27.743Z,13.90
2018-06-14T00:29:56.163Z,13.90
2018-06-14T00:32:24.783Z,13.90
2018-06-14T00:34:53.356Z,13.80
2018-06-14T00:37:21.765Z,13.80
2018-06-14T00:39:50.232Z,13.80
2018-06-14T00:42:18.711Z,13.90
2018-06-14T00:44:47.321Z,13.90
2018-06-14T00:47:15.796Z,13.80
2018-06-14T00:49:44.366Z,13.80
2018-06-14T00:52:12.843Z,13.80
2018-06-14T00:54:41.351Z,13.80
2018-06-14T00:57:21.241Z,13.80
2018-06-14T00:59:49.789Z,13.80
2018-06-14T01:02:18.312Z,13.80
2018-06-14T01:04:46.777Z,13.80
2018-06-14T01:07:15.344Z,13.80
2018-06-14T01:12:12.133Z,13.80
2018-06-14T01:14:40.665Z,13.80
2018-06-14T01:17:09.457Z,13.70
2018-06-14T01:19:37.931Z,13.80
2018-06-14T01:22:06.671Z,13.70
2018-06-14T01:24:35.135Z,13.70
2018-06-14T01:27:07.004Z,13.70
2018-06-14T01:29:35.487Z,13.60
2018-06-14T01:32:04.228Z,13.70
2018-06-14T01:34:32.786Z,13.70
2018-06-14T01:37:01.268Z,13.70
2018-06-14T01:39:29.810Z,13.70
2018-06-14T01:41:58.301Z,13.70
2018-06-14T01:44:26.830Z,13.70
2018-06-14T01:46:55.323Z,13.70
2018-06-14T01:49:23.880Z,13.70
2018-06-14T01:51:52.314Z,13.70
2018-06-14T01:54:20.778Z,13.70
2018-06-14T01:56:49.276Z,13.70
2018-06-14T01:59:17.906Z,13.70
2018-06-14T02:01:46.488Z,13.70
2018-06-14T02:04:15.084Z,13.70
2018-06-14T02:06:43.638Z,13.70
2018-06-14T02:09:12.117Z,13.70
2018-06-14T02:11:40.634Z,13.70
2018-06-14T02:14:09.044Z,13.70
2018-06-14T02:16:37.746Z,13.60
2018-06-14T02:19:06.204Z,13.60
2018-06-14T02:21:34.705Z,13.60
2018-06-14T02:24:03.211Z,13.60
2018-06-14T02:26:31.705Z,13.60
2018-06-14T02:29:00.157Z,13.50
2018-06-14T02:31:28.598Z,13.50
2018-06-14T02:33:57.082Z,13.50
2018-06-14T02:38:53.875Z,13.50
2018-06-14T02:41:22.513Z,13.50
2018-06-14T02:43:51.089Z,13.50
2018-06-14T02:46:19.608Z,13.50
2018-06-14T02:48:48.177Z,13.50
2018-06-14T02:51:16.698Z,13.50
2018-06-14T02:53:45.231Z,13.50
2018-06-14T02:56:13.647Z,13.50
2018-06-14T02:58:42.100Z,13.50
2018-06-14T03:01:10.652Z,13.50
2018-06-14T03:03:39.103Z,13.40
2018-06-14T03:06:07.519Z,13.40
2018-06-14T03:08:36.015Z,13.30
2018-06-14T03:11:04.563Z,13.40
2018-06-14T03:13:33.057Z,13.40
2018-06-14T03:16:01.518Z,13.40
2018-06-14T03:18:30.017Z,13.40
2018-06-14T03:20:58.575Z,13.40
2018-06-14T03:23:27.092Z,13.40
2018-06-14T03:25:55.540Z,13.40
2018-06-14T03:28:23.932Z,13.40
2018-06-14T03:30:52.352Z,13.40
2018-06-14T03:33:20.939Z,13.40
2018-06-14T03:35:49.361Z,13.40
2018-06-14T03:38:17.862Z,13.40
2018-06-14T03:40:46.289Z,13.40
2018-06-14T03:43:14.757Z,13.40
2018-06-14T03:45:43.168Z,13.40
2018-06-14T03:48:11.840Z,13.40
2018-06-14T03:50:40.354Z,13.30
2018-06-14T03:53:08.779Z,13.30
2018-06-14T03:55:37.210Z,13.40
2018-06-14T03:58:05.976Z,13.40
2018-06-14T04:00:34.477Z,13.50
2018-06-14T04:03:03.031Z,13.50
2018-06-14T04:05:31.438Z,13.50
2018-06-14T04:07:59.853Z,13.50
2018-06-14T04:10:28.393Z,13.60
2018-06-14T04:12:56.717Z,13.60
2018-06-14T04:15:25.154Z,13.70
2018-06-14T04:17:59.075Z,13.80
2018-06-14T04:20:27.810Z,13.80
2018-06-14T04:22:57.060Z,13.90
2018-06-14T04:25:25.699Z,13.90
2018-06-14T04:27:54.093Z,13.90
2018-06-14T04:30:22.746Z,13.90
2018-06-14T04:32:51.612Z,14.00
2018-06-14T04:35:20.057Z,14.10
2018-06-14T04:37:48.602Z,14.10
2018-06-14T04:40:17.073Z,14.00
2018-06-14T04:45:13.914Z,14.10
2018-06-14T04:47:42.490Z,14.10
2018-06-14T04:50:11.025Z,14.00
2018-06-14T04:52:39.694Z,14.10
2018-06-14T04:55:08.196Z,14.10
2018-06-14T04:57:36.697Z,14.10
2018-06-14T05:00:08.333Z,14.20
2018-06-14T05:02:36.882Z,14.20
2018-06-14T05:05:06.460Z,14.20
2018-06-14T05:07:35.233Z,14.30
2018-06-14T05:10:03.776Z,14.20
2018-06-14T05:12:32.194Z,14.30
2018-06-14T05:15:00.641Z,14.40
2018-06-14T05:17:29.090Z,14.40
2018-06-14T05:19:57.577Z,14.50
2018-06-14T05:24:54.192Z,14.60
2018-06-14T05:27:22.713Z,14.60
2018-06-14T05:29:51.276Z,14.60
2018-06-14T05:32:19.793Z,14.60
2018-06-14T05:34:48.360Z,14.60
2018-06-14T05:37:16.932Z,14.70
2018-06-14T05:39:45.371Z,14.70
2018-06-14T05:42:13.897Z,14.50
2018-06-14T05:44:42.374Z,14.50
2018-06-14T05:47:10.815Z,14.50
2018-06-14T05:49:39.369Z,14.60
2018-06-14T05:52:07.864Z,14.80
2018-06-14T05:54:36.311Z,14.80
2018-06-14T05:57:04.782Z,14.70
2018-06-14T05:59:33.257Z,14.90
2018-06-14T06:02:01.709Z,15.10
2018-06-14T06:04:30.118Z,15.10
2018-06-14T06:06:58.644Z,15.10
2018-06-14T06:09:27.121Z,15.20
2018-06-14T06:11:55.599Z,15.30
2018-06-14T06:14:24.106Z,15.40
2018-06-14T06:16:52.536Z,15.50
2018-06-14T06:19:21.023Z,15.40
2018-06-14T06:21:49.500Z,15.20
2018-06-14T06:26:46.145Z,14.90
2018-06-14T06:29:14.698Z,15.00
2018-06-14T06:31:43.124Z,15.00
2018-06-14T06:34:11.572Z,15.30
2018-06-14T06:36:40.692Z,15.10
2018-06-14T06:39:11.124Z,15.10
2018-06-14T06:41:39.596Z,15.30
2018-06-14T06:44:08.401Z,15.30
2018-06-14T06:46:36.983Z,15.10
2018-06-14T06:49:05.579Z,15.00
2018-06-14T06:51:33.975Z,15.20
2018-06-14T06:54:02.571Z,15.30
2018-06-14T06:56:31.020Z,15.30
2018-06-14T06:58:59.667Z,15.30
2018-06-14T07:01:28.008Z,15.50
2018-06-14T07:03:56.480Z,15.60
2018-06-14T07:06:24.955Z,15.60
2018-06-14T07:08:53.454Z,15.80
2018-06-14T07:11:21.908Z,15.50
2018-06-14T07:13:50.636Z,15.50
2018-06-14T07:16:19.160Z,15.60
2018-06-14T07:18:47.552Z,15.40
2018-06-14T07:21:15.969Z,15.00
2018-06-14T07:23:44.426Z,15.20
2018-06-14T07:26:12.982Z,15.30
2018-06-14T07:28:41.393Z,15.40
2018-06-14T07:31:09.842Z,15.50
2018-06-14T07:33:38.531Z,15.50
2018-06-14T07:36:07.024Z,15.50
2018-06-14T07:38:35.465Z,15.40
2018-06-14T07:41:03.868Z,15.40
2018-06-14T07:43:32.294Z,15.20
2018-06-14T07:46:00.754Z,15.20
2018-06-14T07:48:29.175Z,15.30
2018-06-14T07:50:57.630Z,15.10
2018-06-14T07:53:26.082Z,15.50
2018-06-14T07:55:54.535Z,15.80
2018-06-14T07:58:22.989Z,15.70
2018-06-14T08:00:51.625Z,15.70
2018-06-14T08:03:20.057Z,15.90
2018-06-14T08:05:48.510Z,16.20
2018-06-14T08:08:17.013Z,16.30
2018-06-14T08:10:45.473Z,16.40
2018-06-14T08:13:14.126Z,16.30
2018-06-14T08:15:44.452Z,16.40
2018-06-14T08:18:13.630Z,16.60
2018-06-14T08:20:42.129Z,16.60
2018-06-14T08:23:10.683Z,16.80
2018-06-14T08:25:39.193Z,17.40
2018-06-14T08:28:07.889Z,18.30
2018-06-14T08:30:36.416Z,18.80
2018-06-14T08:33:04.994Z,19.20
2018-06-14T08:35:33.461Z,19.30
2018-06-14T08:38:01.969Z,19.50
2018-06-14T08:40:30.482Z,19.70
2018-06-14T08:42:58.963Z,19.40
2018-06-14T08:45:27.397Z,19.20
2018-06-14T08:47:55.847Z,19.30
2018-06-14T08:50:24.360Z,19.70
2018-06-14T08:52:52.848Z,19.70
2018-06-14T08:55:23.866Z,19.00
2018-06-14T08:57:52.430Z,18.70
2018-06-14T09:00:20.941Z,17.70
2018-06-14T09:02:49.992Z,17.80
2018-06-14T09:05:18.563Z,17.80
2018-06-14T09:07:46.964Z,17.90
2018-06-14T09:10:15.416Z,18.30
2018-06-14T09:12:43.896Z,18.60
2018-06-14T09:15:12.310Z,19.20
2018-06-14T09:17:40.812Z,20.40
2018-06-14T09:20:09.296Z,21.60
2018-06-14T09:22:37.726Z,21.60
2018-06-14T09:25:06.231Z,20.90
2018-06-14T09:27:34.632Z,20.30
2018-06-14T09:30:03.135Z,20.10
2018-06-14T09:35:00.041Z,18.90
2018-06-14T09:37:28.638Z,18.10
2018-06-14T09:39:59.987Z,17.80
2018-06-14T09:42:28.600Z,17.70
2018-06-14T09:44:57.033Z,17.60
2018-06-14T09:47:25.562Z,17.90
2018-06-14T09:49:54.052Z,17.90
2018-06-14T09:52:22.509Z,17.40
2018-06-14T09:54:51.202Z,17.40
2018-06-14T09:57:19.722Z,17.40
2018-06-14T09:59:48.313Z,17.40
2018-06-14T10:02:16.746Z,17.50
2018-06-14T10:04:45.253Z,17.60
2018-06-14T10:07:13.716Z,17.70
2018-06-14T10:09:42.331Z,17.40
2018-06-14T10:12:10.901Z,17.00
2018-06-14T10:14:39.400Z,17.10
2018-06-14T10:17:08.096Z,17.60
2018-06-14T10:19:36.553Z,17.90
2018-06-14T10:22:05.028Z,17.80
2018-06-14T10:24:33.470Z,17.50
2018-06-14T10:27:02.037Z,17.60
2018-06-14T10:29:30.502Z,17.90
2018-06-14T10:31:58.956Z,18.00
2018-06-14T10:34:27.389Z,18.00
2018-06-14T10:36:55.939Z,17.70
2018-06-14T10:39:24.413Z,18.10
2018-06-14T10:41:52.943Z,18.60
2018-06-14T10:44:21.387Z,18.70
2018-06-14T10:46:49.840Z,17.70
2018-06-14T10:49:18.294Z,17.00
2018-06-14T10:51:46.746Z,17.10
2018-06-14T10:54:15.281Z,17.10
2018-06-14T10:56:43.809Z,17.60
2018-06-14T10:59:12.282Z,18.20
2018-06-14T11:01:40.778Z,18.20
2018-06-14T11:04:09.404Z,18.30
2018-06-14T11:06:38.156Z,17.90
2018-06-14T11:09:08.974Z,17.40
2018-06-14T11:11:37.531Z,17.40
2018-06-14T11:14:06.043Z,17.90
2018-06-14T11:16:34.455Z,17.60
2018-06-14T11:19:02.898Z,17.40
2018-06-14T11:21:31.335Z,17.50
2018-06-14T11:23:59.798Z,17.70
2018-06-14T11:26:28.803Z,17.90
2018-06-14T11:31:25.483Z,18.90
2018-06-14T11:33:54.466Z,18.70
2018-06-14T11:36:22.923Z,18.80
2018-06-14T11:38:51.481Z,18.30
2018-06-14T11:41:20.023Z,18.50
2018-06-14T11:43:48.713Z,18.60
2018-06-14T11:46:17.306Z,18.90
2018-06-14T11:48:45.798Z,19.20
2018-06-14T11:51:14.328Z,20.00
2018-06-14T11:53:42.875Z,20.40
2018-06-14T11:56:11.354Z,20.60
2018-06-14T11:58:39.864Z,20.80
2018-06-14T12:01:08.600Z,20.70
2018-06-14T12:03:37.089Z,20.10
2018-06-14T12:06:05.590Z,20.20
2018-06-14T12:08:34.165Z,19.80
2018-06-14T12:11:02.767Z,20.00
2018-06-14T12:13:31.254Z,20.00
2018-06-14T12:15:59.729Z,19.90
2018-06-14T12:18:28.200Z,18.90
2018-06-14T12:20:56.685Z,17.80
2018-06-14T12:23:25.135Z,18.20
2018-06-14T12:25:53.770Z,18.70
2018-06-14T12:28:22.484Z,19.40
2018-06-14T12:30:50.991Z,18.40
2018-06-14T12:33:19.465Z,18.60
2018-06-14T12:35:47.916Z,19.30
2018-06-14T12:38:16.449Z,20.10
2018-06-14T12:40:44.959Z,20.40
2018-06-14T12:43:13.509Z,20.80
2018-06-14T12:45:41.947Z,21.20
2018-06-14T12:48:10.430Z,21.60
2018-06-14T12:50:38.874Z,21.90
2018-06-14T12:53:07.323Z,21.80
2018-06-14T12:55:35.724Z,21.80
2018-06-14T12:58:04.194Z,21.60
2018-06-14T13:00:32.923Z,21.60
2018-06-14T13:03:01.628Z,21.30
2018-06-14T13:05:30.279Z,20.80
2018-06-14T13:07:58.825Z,20.40
2018-06-14T13:10:27.232Z,21.10
2018-06-14T13:12:55.718Z,21.70
2018-06-14T13:15:24.228Z,21.50
2018-06-14T13:17:52.779Z,21.60
2018-06-14T13:20:21.252Z,21.50
2018-06-14T13:22:49.659Z,21.90
2018-06-14T13:25:18.151Z,21.60
2018-06-14T13:27:46.616Z,21.60
2018-06-14T13:30:15.087Z,22.20
2018-06-14T13:32:43.637Z,21.60
2018-06-14T13:35:12.400Z,21.80
2018-06-14T13:37:40.916Z,21.70
2018-06-14T13:40:09.399Z,21.40
2018-06-14T13:42:37.954Z,21.80
2018-06-14T13:45:06.493Z,21.60
2018-06-14T13:47:34.953Z,21.70
2018-06-14T13:52:31.806Z,20.50
2018-06-14T13:55:00.295Z,20.40
2018-06-14T13:57:28.745Z,20.00
2018-06-14T13:59:57.266Z,20.20
2018-06-14T14:02:25.814Z,20.00
2018-06-14T14:04:54.314Z,19.90
2018-06-14T14:07:27.533Z,19.90
2018-06-14T14:09:57.086Z,19.90
2018-06-14T14:12:26.127Z,19.60
2018-06-14T14:14:54.935Z,19.20
2018-06-14T14:17:23.501Z,19.30
2018-06-14T14:19:52.043Z,19.30
2018-06-14T14:22:20.563Z,19.30
2018-06-14T14:24:49.281Z,18.90
2018-06-14T14:27:17.826Z,18.70
2018-06-14T14:29:46.468Z,19.30
2018-06-14T14:32:15.262Z,19.50
2018-06-14T14:34:43.900Z,19.60
2018-06-14T14:37:12.704Z,19.50
2018-06-14T14:39:41.213Z,19.00
2018-06-14T14:42:09.892Z,18.80
2018-06-14T14:44:38.507Z,19.10
2018-06-14T14:47:07.135Z,19.40
2018-06-14T14:49:35.820Z,19.80
2018-06-14T14:52:04.466Z,19.90
2018-06-14T14:54:33.178Z,19.70
2018-06-14T14:57:01.967Z,20.00
2018-06-14T14:59:30.636Z,20.20
2018-06-14T15:01:59.504Z,19.90
2018-06-14T15:04:28.061Z,20.20
2018-06-14T15:06:56.615Z,20.50
2018-06-14T15:09:25.173Z,20.60
2018-06-14T15:11:53.780Z,20.50
2018-06-14T15:14:22.518Z,20.70
2018-06-14T15:19:19.339Z,20.50
2018-06-14T15:21:48.132Z,19.50
2018-06-14T15:24:16.727Z,19.50
2018-06-14T15:26:45.494Z,19.80
2018-06-14T15:29:14.053Z,20.10
2018-06-14T15:31:42.614Z,20.10
2018-06-14T15:34:11.144Z,19.80
2018-06-14T15:36:39.804Z,19.90
2018-06-14T15:39:09.041Z,20.10
2018-06-14T15:41:37.761Z,20.00
2018-06-14T15:44:06.306Z,20.00
2018-06-14T15:46:34.788Z,19.80
2018-06-14T15:49:03.683Z,19.90
2018-06-14T15:51:32.194Z,20.00
2018-06-14T15:54:00.861Z,20.10
2018-06-14T15:56:40.664Z,20.00
2018-06-14T15:59:10.479Z,19.90
2018-06-14T16:01:39.328Z,20.20
2018-06-14T16:04:08.628Z,19.70
2018-06-14T16:06:37.274Z,19.70
2018-06-14T16:09:10.066Z,19.30
2018-06-14T16:11:38.675Z,19.40
2018-06-14T16:14:07.537Z,19.70
2018-06-14T16:16:36.321Z,19.90
2018-06-14T16:19:05.105Z,20.00
2018-06-14T16:21:33.732Z,20.00
2018-06-14T16:24:02.597Z,20.20
2018-06-14T16:26:31.253Z,19.90
2018-06-14T16:28:59.879Z,19.80
2018-06-14T16:31:28.458Z,20.00
2018-06-14T16:33:57.040Z,20.00
2018-06-14T16:36:25.603Z,20.00
2018-06-14T16:38:54.334Z,20.00
2018-06-14T16:41:22.869Z,19.70
2018-06-14T16:43:51.738Z,19.40
2018-06-14T16:46:20.446Z,19.00
2018-06-14T16:48:49.176Z,19.20
2018-06-14T16:51:18.125Z,19.40
2018-06-14T16:53:46.891Z,19.40
2018-06-14T16:56:15.708Z,19.20
2018-06-14T16:58:44.419Z,19.10
2018-06-14T17:01:13.301Z,19.30
2018-06-14T17:03:42.122Z,19.20
2018-06-14T17:06:11.120Z,19.30
2018-06-14T17:08:39.844Z,19.20
2018-06-14T17:11:08.622Z,19.20
2018-06-14T17:13:37.855Z,19.10
2018-06-14T17:16:06.573Z,19.00
2018-06-14T17:18:35.105Z,18.90
2018-06-14T17:21:04.042Z,18.80
2018-06-14T17:23:32.632Z,18.70
2018-06-14T17:26:01.173Z,18.70
2018-06-14T17:28:29.808Z,18.50
2018-06-14T17:30:58.376Z,18.50
2018-06-14T17:33:26.897Z,18.30
2018-06-14T17:35:55.512Z,18.40
2018-06-14T17:38:24.199Z,18.40
2018-06-14T17:40:52.799Z,18.40
2018-06-14T17:43:21.454Z,18.50
2018-06-14T17:45:50.062Z,18.30
2018-06-14T17:48:18.901Z,18.30
2018-06-14T17:50:47.681Z,18.20
2018-06-14T17:53:16.358Z,18.10
2018-06-14T17:55:45.718Z,18.10
2018-06-14T17:58:14.421Z,18.10
2018-06-14T18:00:42.987Z,18.20
2018-06-14T18:03:11.604Z,18.30
2018-06-14T18:05:40.185Z,18.30
2018-06-14T18:08:08.731Z,18.30
2018-06-14T18:10:37.303Z,18.30
2018-06-14T18:13:05.930Z,18.20
2018-06-14T18:15:34.566Z,18.10
2018-06-14T18:18:03.109Z,18.00
2018-06-14T18:20:31.696Z,17.80
2018-06-14T18:23:00.488Z,17.70
2018-06-14T18:25:29.094Z,17.60
2018-06-14T18:27:57.762Z,17.60
2018-06-14T18:30:26.539Z,17.50
2018-06-14T18:32:55.351Z,17.30
2018-06-14T18:35:24.298Z,17.20
2018-06-14T18:37:52.978Z,17.10
2018-06-14T18:40:21.740Z,17.00
2018-06-14T18:42:50.541Z,16.90
2018-06-14T18:45:19.239Z,16.90
2018-06-14T18:47:47.816Z,16.80
2018-06-14T18:50:16.419Z,16.60
2018-06-14T18:52:45.803Z,16.60
2018-06-14T18:55:14.700Z,16.50
2018-06-14T18:57:43.430Z,16.50
2018-06-14T19:00:12.536Z,16.50
2018-06-14T19:02:41.203Z,16.40
2018-06-14T19:05:10.101Z,16.40
2018-06-14T19:07:38.769Z,16.20
2018-06-14T19:10:07.438Z,16.20
2018-06-14T19:12:36.147Z,16.10
2018-06-14T19:15:05.048Z,16.00
2018-06-14T19:17:33.961Z,15.90
2018-06-14T19:20:02.669Z,15.90
2018-06-14T19:22:31.495Z,15.90
2018-06-14T19:25:00.178Z,15.90
2018-06-14T19:27:28.881Z,15.80
2018-06-14T19:29:57.858Z,15.70
2018-06-14T19:32:26.746Z,15.60
2018-06-14T19:34:56.404Z,15.60
2018-06-14T19:37:25.163Z,15.50
2018-06-14T19:39:53.811Z,15.40
2018-06-14T19:42:22.688Z,15.30
2018-06-14T19:44:51.530Z,15.30
2018-06-14T19:47:20.135Z,15.30
2018-06-14T19:49:49.400Z,15.30
2018-06-14T19:52:18.306Z,15.20
2018-06-14T19:54:48.157Z,15.10
2018-06-14T19:57:16.894Z,15.00
2018-06-14T19:59:46.084Z,15.00
2018-06-14T20:02:14.826Z,14.90
2018-06-14T20:04:44.721Z,14.90
2018-06-14T20:07:13.518Z,14.90
2018-06-14T20:09:42.598Z,14.90
2018-06-14T20:12:11.361Z,14.80
2018-06-14T20:14:40.067Z,14.70
2018-06-14T20:17:08.857Z,14.60
2018-06-14T20:19:37.948Z,14.60
2018-06-14T20:22:06.928Z,14.40
2018-06-14T20:24:35.525Z,14.40
2018-06-14T20:27:04.645Z,14.30
2018-06-14T20:29:33.135Z,14.20
2018-06-14T20:32:01.788Z,14.20
2018-06-14T20:34:30.377Z,14.10
2018-06-14T20:36:59.961Z,14.00
2018-06-14T20:39:29.712Z,14.00
2018-06-14T20:41:58.426Z,13.90
2018-06-14T20:44:26.866Z,13.90
2018-06-14T20:46:55.403Z,13.80
2018-06-14T20:49:24.093Z,13.80
2018-06-14T20:51:52.644Z,13.80
2018-06-14T20:54:21.234Z,13.70
2018-06-14T20:56:49.778Z,13.70
2018-06-14T20:59:18.407Z,13.60
2018-06-14T21:01:46.962Z,13.60
2018-06-14T21:04:15.640Z,13.50
2018-06-14T21:06:44.265Z,13.50
2018-06-14T21:09:12.750Z,13.40
2018-06-14T21:11:41.304Z,13.30
2018-06-14T21:14:09.886Z,13.30
2018-06-14T21:16:38.548Z,13.20
2018-06-14T21:19:07.062Z,13.10
2018-06-14T21:21:35.678Z,13.10
2018-06-14T21:24:04.217Z,13.20
2018-06-14T21:26:32.730Z,13.20
2018-06-14T21:29:01.322Z,13.20
2018-06-14T21:31:29.998Z,13.40
2018-06-14T21:33:58.531Z,13.40
2018-06-14T21:36:27.031Z,13.40
2018-06-14T21:38:55.549Z,13.40
2018-06-14T21:41:24.038Z,13.40
2018-06-14T21:43:52.632Z,13.50
2018-06-14T21:46:21.116Z,13.50
2018-06-14T21:48:49.575Z,13.30
2018-06-14T21:51:18.058Z,13.40
2018-06-14T21:53:46.497Z,13.40
2018-06-14T21:56:15.021Z,13.30
2018-06-14T21:58:43.476Z,13.20
2018-06-14T22:01:11.948Z,13.10
2018-06-14T22:03:45.695Z,13.10
2018-06-14T22:06:14.168Z,13.00
2018-06-14T22:08:42.613Z,13.00
2018-06-14T22:13:39.200Z,12.80
2018-06-14T22:16:07.698Z,12.80
2018-06-14T22:18:36.183Z,12.70
2018-06-14T22:21:04.773Z,12.70
2018-06-14T22:23:33.602Z,12.60
2018-06-14T22:26:02.096Z,12.50
2018-06-14T22:28:30.718Z,12.40
2018-06-14T22:31:01.249Z,12.40
2018-06-14T22:33:41.251Z,12.30
2018-06-14T22:36:10.029Z,12.30
2018-06-14T22:38:38.481Z,12.30
2018-06-14T22:41:07.074Z,12.30
2018-06-14T22:43:35.652Z,12.30
2018-06-14T22:46:04.293Z,12.20
2018-06-14T22:48:32.899Z,12.20
2018-06-14T22:51:12.427Z,12.20
2018-06-14T22:53:41.118Z,12.20
2018-06-14T22:56:09.816Z,12.20
2018-06-14T22:58:38.405Z,12.20
2018-06-14T23:01:53.182Z,12.10
2018-06-14T23:04:24.600Z,12.10
2018-06-14T23:06:53.638Z,12.20
2018-06-14T23:10:45.597Z,12.20
2018-06-14T23:13:16.650Z,12.10
2018-06-14T23:15:45.214Z,12.30
2018-06-14T23:18:13.693Z,12.30
2018-06-14T23:20:42.296Z,12.30
2018-06-14T23:23:10.861Z,12.30
2018-06-14T23:28:07.728Z,12.40
2018-06-14T23:30:36.391Z,12.40
2018-06-14T23:35:33.085Z,12.40
2018-06-14T23:38:01.624Z,12.40
2018-06-14T23:40:30.097Z,12.40
2018-06-14T23:42:58.549Z,12.40
2018-06-14T23:45:27.002Z,12.40
2018-06-14T23:47:55.473Z,12.40
2018-06-14T23:50:23.963Z,12.40
2018-06-14T23:52:52.925Z,12.50
2018-06-14T23:55:21.385Z,12.50
2018-06-14T23:57:49.854Z,12.60
